Terminal Aerodrome Forecast
Issued by NWS

Home | Current Version | Previous Version | Text Only | Print | Product List | Glossary On
Versions: 1 2 3 4 5 6 7 8 9 10 11 12 13 14 15
622
FTUS45 KPIH 280046 AAA
TAFSUN
TAF AMD
KSUN 280046Z 2801/2824 28010G20KT P6SM FEW040
     FM280300 32015KT P6SM FEW040 SCT080
      AMD LTD TO CLD VIS AND WIND 2805/2813=

USA.gov is the U.S. government's official web portal to all federal, state and local government web resources and services.